Time;durP1;ratioP1;P1;durP2;ratioP2;P2;SDS_P1;SDS_P2;PMS_P1;PMS_P2;Temp;Humidity;BMP_temperature;BMP_pressure;BME280_temperature;BME280_humidity;BME280_pressure;Samples;Min_cycle;Max_cycle;Signal;HPM_P1;HPM_P2
2023/09/22 00:00:55;;;;;;;8.33;4.43;;;20.80;99.90;;;;;;5034133;28;20194;-66
2023/09/22 00:03:21;;;;;;;7.70;5.10;;;20.80;99.90;;;;;;5036819;28;20838;-66
2023/09/22 00:05:46;;;;;;;5.13;4.67;;;20.80;99.90;;;;;;5036994;28;20755;-66
2023/09/22 00:08:12;;;;;;;5.47;4.90;;;20.70;99.90;;;;;;5032910;28;20202;-66
2023/09/22 00:10:38;;;;;;;5.43;4.63;;;20.60;99.90;;;;;;5041162;28;20222;-66
2023/09/22 00:13:05;;;;;;;7.47;4.50;;;20.60;99.90;;;;;;5038250;28;20205;-67
2023/09/22 00:15:32;;;;;;;5.00;4.47;;;20.50;99.90;;;;;;5034390;28;20254;-67
2023/09/22 00:17:58;;;;;;;12.47;5.30;;;20.60;99.90;;;;;;5040403;28;20325;-63
2023/09/22 00:20:23;;;;;;;5.40;4.70;;;20.70;99.90;;;;;;5036476;28;20211;-63
2023/09/22 00:22:49;;;;;;;4.70;4.17;;;20.70;99.90;;;;;;5037090;28;20205;-63
2023/09/22 00:25:16;;;;;;;7.33;5.03;;;20.60;99.90;;;;;;5036370;28;20731;-63
2023/09/22 00:27:41;;;;;;;7.77;5.60;;;20.60;99.90;;;;;;5029149;28;20776;-63
2023/09/22 00:30:09;;;;;;;6.70;5.20;;;20.60;99.90;;;;;;5035967;28;20286;-64
2023/09/22 00:32:35;;;;;;;5.63;5.10;;;20.60;99.90;;;;;;5034626;28;20194;-63
2023/09/22 00:35:04;;;;;;;8.53;4.67;;;20.60;99.90;;;;;;5027604;28;20685;-63
2023/09/22 00:37:29;;;;;;;6.60;5.30;;;20.50;99.90;;;;;;5036089;28;20768;-63
2023/09/22 00:39:55;;;;;;;6.70;5.70;;;20.50;99.90;;;;;;5033889;28;20199;-66
2023/09/22 00:42:22;;;;;;;7.13;5.93;;;20.50;99.90;;;;;;5036913;28;20585;-65
2023/09/22 00:44:47;;;;;;;13.43;6.57;;;20.50;99.90;;;;;;5034309;28;20264;-65
2023/09/22 00:47:14;;;;;;;8.50;6.17;;;20.50;99.90;;;;;;5033646;28;20282;-65
2023/09/22 00:49:41;;;;;;;7.43;6.77;;;20.50;99.90;;;;;;5035593;28;20569;-64
2023/09/22 00:52:07;;;;;;;5.83;5.20;;;20.50;99.90;;;;;;5032567;28;20213;-64
2023/09/22 00:54:32;;;;;;;9.97;5.93;;;20.50;99.90;;;;;;5039521;28;20224;-64
2023/09/22 00:56:59;;;;;;;7.03;6.33;;;20.40;99.90;;;;;;5036178;28;20878;-64
2023/09/22 00:59:25;;;;;;;6.80;6.10;;;20.40;99.90;;;;;;5040719;28;20197;-64
2023/09/22 01:01:51;;;;;;;9.00;6.10;;;20.40;99.90;;;;;;5040297;28;20564;-65
2023/09/22 01:04:19;;;;;;;8.47;6.30;;;20.40;99.90;;;;;;5033901;28;20203;-64
2023/09/22 01:06:46;;;;;;;7.77;6.40;;;20.40;99.90;;;;;;5039247;28;20260;-64
2023/09/22 01:09:11;;;;;;;8.47;6.03;;;20.40;99.90;;;;;;5038694;28;20206;-64
2023/09/22 01:11:38;;;;;;;7.67;6.40;;;20.40;99.90;;;;;;5034788;28;20206;-65
2023/09/22 01:14:04;;;;;;;7.73;6.67;;;20.40;99.90;;;;;;5044702;28;20234;-64
2023/09/22 01:16:29;;;;;;;7.70;6.90;;;20.50;99.90;;;;;;5041799;28;20315;-64
2023/09/22 01:18:56;;;;;;;6.67;6.07;;;20.50;99.90;;;;;;5039981;28;20594;-65
2023/09/22 01:21:31;;;;;;;12.67;6.30;;;20.40;99.90;;;;;;5041597;28;20271;-64
2023/09/22 01:23:58;;;;;;;8.07;6.60;;;20.30;99.90;;;;;;5043856;28;20191;-63
2023/09/22 01:26:23;;;;;;;8.83;6.80;;;20.10;99.90;;;;;;5027306;28;20197;-67
2023/09/22 01:28:49;;;;;;;7.07;6.40;;;20.10;99.90;;;;;;5038112;28;20521;-70
2023/09/22 01:31:15;;;;;;;7.20;6.60;;;20.10;99.90;;;;;;5041741;28;20264;-61
2023/09/22 01:33:40;;;;;;;7.60;6.90;;;20.10;99.90;;;;;;5038032;28;20206;-67
2023/09/22 01:36:06;;;;;;;6.93;6.23;;;20.20;99.90;;;;;;5019445;28;20223;-65
2023/09/22 01:38:32;;;;;;;8.17;7.37;;;20.20;99.90;;;;;;5033374;28;20191;-65
2023/09/22 01:40:58;;;;;;;8.43;7.00;;;20.20;99.90;;;;;;5037614;28;20233;-62
2023/09/22 01:43:24;;;;;;;8.00;6.87;;;20.20;99.90;;;;;;5040127;28;20191;-64
2023/09/22 01:45:50;;;;;;;7.60;6.80;;;20.20;99.90;;;;;;5037977;28;20561;-64
2023/09/22 01:48:15;;;;;;;8.03;7.20;;;20.20;99.90;;;;;;5040510;28;20238;-63
2023/09/22 01:50:41;;;;;;;7.00;6.30;;;20.10;99.90;;;;;;5039243;28;20213;-63
2023/09/22 01:53:09;;;;;;;10.57;7.50;;;20.10;99.90;;;;;;5043450;28;20201;-66
2023/09/22 01:55:36;;;;;;;8.47;7.60;;;20.10;99.90;;;;;;5039963;28;20214;-66
2023/09/22 01:58:02;;;;;;;8.37;7.57;;;20.00;99.90;;;;;;5033157;28;20207;-67
2023/09/22 02:00:27;;;;;;;10.33;7.53;;;20.00;99.90;;;;;;5035675;28;20217;-67
2023/09/22 02:02:53;;;;;;;7.60;7.00;;;20.00;99.90;;;;;;5041073;28;20567;-63
2023/09/22 02:05:19;;;;;;;8.37;7.00;;;20.00;99.90;;;;;;5036557;28;20204;-64
2023/09/22 02:07:45;;;;;;;10.63;7.60;;;20.00;99.90;;;;;;5039271;28;20650;-69
2023/09/22 02:10:13;;;;;;;10.90;8.17;;;20.00;99.90;;;;;;5025433;28;20863;-70
2023/09/22 02:12:40;;;;;;;9.20;7.53;;;19.90;99.90;;;;;;5021236;28;20201;-66
2023/09/22 02:15:10;;;;;;;12.13;7.97;;;19.90;99.90;;;;;;5040136;28;20323;-66
2023/09/22 02:17:43;;;;;;;8.43;7.53;;;19.90;99.90;;;;;;5022618;28;20229;-63
2023/09/22 02:20:22;;;;;;;8.73;6.30;;;19.90;99.90;;;;;;5040883;28;20216;-64
2023/09/22 02:22:58;;;;;;;8.37;6.97;;;19.90;99.90;;;;;;5035402;28;20213;-64
2023/09/22 02:25:24;;;;;;;9.13;6.63;;;19.90;99.90;;;;;;5021243;28;20202;-63
2023/09/22 02:27:53;;;;;;;8.30;6.60;;;19.80;99.90;;;;;;5039442;28;20299;-63
2023/09/22 02:30:20;;;;;;;8.17;7.33;;;19.90;99.90;;;;;;5022529;28;20299;-68
2023/09/22 02:32:50;;;;;;;9.07;7.00;;;19.90;99.90;;;;;;5042701;28;20269;-66
2023/09/22 02:35:18;;;;;;;7.37;6.57;;;20.00;99.90;;;;;;5034920;28;20234;-60
2023/09/22 02:37:44;;;;;;;7.17;6.53;;;20.00;99.90;;;;;;5039968;28;20292;-60
2023/09/22 02:40:10;;;;;;;7.53;6.23;;;20.00;99.90;;;;;;5042452;28;20685;-69
2023/09/22 02:42:36;;;;;;;6.60;5.97;;;20.00;99.90;;;;;;5037929;28;21197;-66
2023/09/22 02:45:02;;;;;;;7.47;6.03;;;20.10;99.90;;;;;;5034000;28;20202;-67
2023/09/22 02:47:27;;;;;;;7.30;6.03;;;20.10;99.90;;;;;;5020566;28;20607;-68
2023/09/22 02:49:54;;;;;;;10.93;6.80;;;20.10;99.90;;;;;;5034081;28;20214;-67
2023/09/22 02:52:20;;;;;;;8.57;5.10;;;20.10;99.90;;;;;;5038285;28;20241;-68
2023/09/22 02:54:46;;;;;;;6.10;5.50;;;20.00;99.90;;;;;;5037381;28;20576;-67
2023/09/22 02:57:12;;;;;;;8.50;6.00;;;19.90;99.90;;;;;;5033046;28;20252;-67
2023/09/22 02:59:37;;;;;;;5.60;5.10;;;20.00;99.90;;;;;;5038227;28;20241;-68
2023/09/22 03:02:03;;;;;;;6.87;5.00;;;19.90;99.90;;;;;;5040547;28;20213;-67
2023/09/22 03:04:31;;;;;;;9.33;5.27;;;19.90;99.90;;;;;;5036089;28;20190;-68
2023/09/22 03:06:56;;;;;;;5.47;5.07;;;19.90;99.90;;;;;;5038164;28;20289;-68
2023/09/22 03:09:22;;;;;;;5.23;4.80;;;19.90;99.90;;;;;;5041768;28;20289;-69
2023/09/22 03:11:47;;;;;;;5.70;4.70;;;19.80;99.90;;;;;;5030689;28;20206;-68
2023/09/22 03:14:13;;;;;;;5.40;4.90;;;19.90;99.90;;;;;;5043448;28;20204;-68
2023/09/22 03:16:41;;;;;;;5.63;4.83;;;19.90;99.90;;;;;;5038114;28;20261;-67
2023/09/22 03:19:07;;;;;;;4.47;4.07;;;19.90;99.90;;;;;;5036217;28;20257;-67
2023/09/22 03:21:32;;;;;;;6.23;4.70;;;19.70;99.90;;;;;;5015075;28;20742;-68
2023/09/22 03:23:58;;;;;;;5.70;4.80;;;19.70;99.90;;;;;;5040471;28;20228;-67
2023/09/22 03:26:23;;;;;;;4.60;4.23;;;19.70;99.90;;;;;;5037835;28;20282;-67
2023/09/22 03:28:49;;;;;;;5.53;4.90;;;19.60;99.90;;;;;;5023966;28;20216;-68
2023/09/22 03:31:19;;;;;;;5.60;3.13;;;19.60;99.90;;;;;;5035059;28;20362;-67
2023/09/22 03:33:46;;;;;;;2.40;2.20;;;19.50;99.90;;;;;;5037047;28;20198;-67
2023/09/22 03:36:12;;;;;;;2.40;2.20;;;19.30;99.90;;;;;;5033352;28;20217;-65
2023/09/22 03:38:42;;;;;;;2.40;2.20;;;19.10;99.90;;;;;;5035268;28;20767;-63
2023/09/22 03:41:08;;;;;;;2.90;2.07;;;18.80;99.90;;;;;;5037189;28;20300;-63
2023/09/22 03:43:34;;;;;;;2.50;2.23;;;18.70;99.90;;;;;;5033845;28;20282;-64
2023/09/22 03:46:00;;;;;;;3.07;2.77;;;18.60;99.90;;;;;;5037510;28;20206;-63
2023/09/22 03:48:26;;;;;;;1.80;1.70;;;18.60;99.90;;;;;;5034153;28;20217;-63
2023/09/22 03:50:53;;;;;;;2.20;2.10;;;18.60;99.90;;;;;;5036567;28;20247;-64
2023/09/22 03:53:18;;;;;;;2.20;2.00;;;18.50;99.90;;;;;;5033383;28;20206;-65
2023/09/22 03:55:44;;;;;;;3.63;2.33;;;18.50;99.90;;;;;;5041628;28;20199;-65
2023/09/22 03:58:10;;;;;;;2.03;1.93;;;18.40;99.90;;;;;;5033027;28;20585;-64
2023/09/22 04:00:36;;;;;;;4.07;2.40;;;18.30;99.90;;;;;;5036385;28;20329;-65
2023/09/22 04:03:01;;;;;;;3.37;2.40;;;18.20;99.90;;;;;;5039510;28;20629;-64
2023/09/22 04:05:27;;;;;;;2.93;1.80;;;18.20;99.90;;;;;;5032745;28;20633;-64
2023/09/22 04:07:54;;;;;;;2.03;1.80;;;18.20;99.90;;;;;;5014239;28;20200;-64
2023/09/22 04:10:20;;;;;;;2.43;1.93;;;18.20;99.90;;;;;;5036791;28;20202;-64
2023/09/22 04:12:46;;;;;;;3.40;2.53;;;18.00;99.90;;;;;;5035281;28;20216;-64
2023/09/22 04:15:12;;;;;;;2.37;2.17;;;18.00;99.90;;;;;;5036641;28;20415;-64
2023/09/22 04:17:40;;;;;;;2.50;2.30;;;18.00;99.90;;;;;;5013271;28;20216;-65
2023/09/22 04:20:07;;;;;;;2.77;2.30;;;18.10;99.90;;;;;;5037358;28;20207;-65
2023/09/22 04:22:34;;;;;;;3.00;2.20;;;18.00;99.90;;;;;;5032432;28;20300;-65
2023/09/22 04:25:00;;;;;;;2.97;2.23;;;18.10;99.90;;;;;;5035231;28;20220;-66
2023/09/22 04:27:34;;;;;;;2.87;1.90;;;18.00;99.90;;;;;;5036966;28;20567;-64
2023/09/22 04:30:03;;;;;;;3.37;2.27;;;17.90;99.90;;;;;;5043710;28;20205;-61
2023/09/22 04:32:33;;;;;;;2.90;2.20;;;17.80;99.90;;;;;;5020668;28;20264;-62
2023/09/22 04:34:59;;;;;;;2.70;2.47;;;17.60;99.90;;;;;;5034798;28;20672;-62
2023/09/22 04:37:25;;;;;;;2.77;2.57;;;17.50;99.90;;;;;;5034343;28;20227;-61
2023/09/22 04:39:52;;;;;;;4.67;2.33;;;17.40;99.90;;;;;;5034241;28;20214;-65
2023/09/22 04:42:18;;;;;;;2.07;1.93;;;17.50;99.90;;;;;;5039381;28;20260;-63
2023/09/22 04:44:44;;;;;;;3.10;2.00;;;17.60;99.90;;;;;;5009272;28;20198;-66
2023/09/22 04:47:09;;;;;;;3.00;2.40;;;17.70;99.90;;;;;;5037150;28;20234;-69
2023/09/22 04:49:35;;;;;;;2.67;2.47;;;17.80;99.90;;;;;;5040649;28;20223;-70
2023/09/22 04:52:03;;;;;;;3.00;2.20;;;17.80;99.90;;;;;;5038051;28;20208;-70
2023/09/22 04:54:29;;;;;;;3.03;2.07;;;17.80;99.90;;;;;;5044995;28;20293;-67
2023/09/22 04:56:55;;;;;;;4.60;2.20;;;17.90;99.90;;;;;;5036029;28;20212;-73
2023/09/22 04:59:20;;;;;;;4.07;2.27;;;17.80;99.90;;;;;;5022657;28;20811;-75
2023/09/22 05:01:46;;;;;;;4.90;2.23;;;17.70;99.90;;;;;;5035775;28;20974;-73
2023/09/22 05:04:11;;;;;;;2.87;2.30;;;17.50;99.90;;;;;;5020295;28;20199;-67
2023/09/22 05:06:37;;;;;;;2.93;2.07;;;17.60;99.90;;;;;;5041490;28;20235;-68
2023/09/22 05:09:03;;;;;;;2.60;1.93;;;17.60;99.90;;;;;;5024173;28;20251;-64
2023/09/22 05:11:28;;;;;;;6.03;2.20;;;17.70;99.90;;;;;;5026187;28;20724;-70
2023/09/22 05:13:54;;;;;;;3.03;1.70;;;17.80;99.90;;;;;;5042451;28;20207;-68
2023/09/22 05:16:21;;;;;;;3.63;2.30;;;17.90;99.90;;;;;;5041123;28;20273;-68
2023/09/22 05:18:46;;;;;;;3.73;1.83;;;17.90;99.90;;;;;;5040352;28;20192;-70
2023/09/22 05:21:12;;;;;;;2.93;1.90;;;18.00;99.90;;;;;;5039814;28;20209;-67
2023/09/22 05:23:38;;;;;;;2.23;1.97;;;18.00;99.90;;;;;;5037577;28;20203;-70
2023/09/22 05:26:08;;;;;;;1.80;1.70;;;18.10;99.90;;;;;;5039925;28;20240;-71
2023/09/22 05:28:34;;;;;;;2.10;2.00;;;18.10;99.90;;;;;;5016427;28;20788;-72
2023/09/22 05:31:00;;;;;;;2.37;2.10;;;18.10;99.90;;;;;;5038575;28;20252;-72
2023/09/22 05:33:28;;;;;;;3.63;1.97;;;18.10;99.90;;;;;;5037135;28;20963;-74
2023/09/22 05:35:54;;;;;;;2.10;1.80;;;18.10;99.90;;;;;;5039774;28;20191;-61
2023/09/22 05:38:20;;;;;;;6.43;1.70;;;18.10;99.90;;;;;;5040922;28;20749;-63
2023/09/22 05:40:48;;;;;;;3.07;1.97;;;18.00;99.90;;;;;;5037180;28;20918;-61
2023/09/22 05:43:14;;;;;;;2.33;1.30;;;18.00;99.90;;;;;;5026969;28;20229;-61
2023/09/22 05:45:41;;;;;;;1.87;1.77;;;18.00;99.90;;;;;;5037208;28;20221;-62
2023/09/22 05:48:07;;;;;;;2.50;1.60;;;18.00;99.90;;;;;;5040683;28;20316;-72
2023/09/22 05:50:35;;;;;;;3.17;2.13;;;18.00;99.90;;;;;;5024826;28;20255;-62
2023/09/22 05:53:01;;;;;;;4.03;1.60;;;18.00;99.90;;;;;;5043782;28;20244;-61
2023/09/22 05:55:28;;;;;;;2.33;1.70;;;18.10;99.90;;;;;;5039704;28;21042;-61
2023/09/22 05:57:54;;;;;;;3.60;2.00;;;18.00;99.90;;;;;;5038468;28;20250;-64
2023/09/22 06:00:19;;;;;;;2.13;1.57;;;17.90;99.90;;;;;;5039788;28;20232;-63
2023/09/22 06:02:50;;;;;;;2.33;1.53;;;17.90;99.90;;;;;;5019736;28;20209;-59
2023/09/22 06:05:20;;;;;;;2.13;1.80;;;17.90;99.90;;;;;;5038180;28;20190;-59
2023/09/22 06:07:46;;;;;;;2.13;1.73;;;17.90;99.90;;;;;;5019023;28;20701;-59
2023/09/22 06:10:12;;;;;;;3.30;1.93;;;17.90;99.90;;;;;;5019582;28;20205;-60
2023/09/22 06:12:38;;;;;;;3.43;2.00;;;17.90;99.90;;;;;;5021177;28;20523;-62
2023/09/22 06:15:06;;;;;;;2.00;1.80;;;17.90;99.90;;;;;;5035595;28;20206;-62
2023/09/22 06:17:32;;;;;;;2.27;2.07;;;17.90;99.90;;;;;;5014841;28;20226;-62
2023/09/22 06:19:57;;;;;;;2.80;2.07;;;18.10;99.90;;;;;;5041709;28;20277;-61
2023/09/22 06:22:23;;;;;;;3.77;2.40;;;18.10;99.90;;;;;;5034747;28;20200;-64
2023/09/22 06:24:50;;;;;;;3.63;2.30;;;18.10;99.90;;;;;;5040424;28;20297;-62
2023/09/22 06:27:16;;;;;;;2.67;2.47;;;18.20;99.90;;;;;;5025066;28;20938;-60
2023/09/22 06:29:42;;;;;;;4.03;1.97;;;18.20;99.90;;;;;;5020106;28;20205;-62
2023/09/22 06:32:07;;;;;;;2.13;1.80;;;18.20;99.90;;;;;;5016173;28;20206;-66
2023/09/22 06:34:33;;;;;;;2.00;1.90;;;18.20;99.90;;;;;;5031839;28;20281;-60
2023/09/22 06:36:58;;;;;;;2.20;2.00;;;18.10;99.90;;;;;;5036290;28;20217;-60
2023/09/22 06:39:24;;;;;;;4.27;2.03;;;18.10;99.90;;;;;;5042499;28;20207;-61
2023/09/22 06:41:50;;;;;;;2.30;2.10;;;18.10;99.90;;;;;;5046628;28;20233;-60
2023/09/22 06:44:16;;;;;;;2.30;2.10;;;18.10;99.90;;;;;;5033079;28;20215;-62
2023/09/22 06:46:42;;;;;;;4.33;2.03;;;18.10;99.90;;;;;;5038435;28;20204;-62
2023/09/22 06:49:10;;;;;;;1.60;1.50;;;18.20;99.90;;;;;;5020134;28;20379;-68
2023/09/22 06:51:37;;;;;;;1.90;1.80;;;18.20;99.90;;;;;;5016542;28;20231;-64
2023/09/22 06:54:03;;;;;;;2.10;2.00;;;18.30;99.90;;;;;;5017995;28;20196;-63
2023/09/22 06:56:29;;;;;;;3.80;2.53;;;18.30;99.90;;;;;;5033488;28;20225;-62
2023/09/22 06:58:54;;;;;;;3.00;1.87;;;18.30;99.90;;;;;;5040740;28;20263;-63
2023/09/22 07:01:20;;;;;;;2.80;1.87;;;18.30;99.90;;;;;;5035404;28;20271;-64
2023/09/22 07:03:48;;;;;;;1.70;1.60;;;18.20;99.90;;;;;;5042748;28;20674;-63
2023/09/22 07:06:18;;;;;;;2.53;2.33;;;18.30;99.90;;;;;;5040418;28;20196;-60
2023/09/22 07:08:46;;;;;;;2.30;2.07;;;18.20;99.90;;;;;;5036772;28;20724;-60
2023/09/22 07:11:11;;;;;;;3.77;2.27;;;18.30;99.90;;;;;;5040105;28;20210;-59
2023/09/22 07:13:40;;;;;;;2.33;2.20;;;18.30;99.90;;;;;;5036776;28;20204;-60
2023/09/22 07:16:06;;;;;;;4.10;2.50;;;18.20;99.90;;;;;;5039046;28;20549;-60
2023/09/22 07:18:31;;;;;;;3.97;2.63;;;18.10;99.90;;;;;;5044218;28;20241;-60
2023/09/22 07:20:57;;;;;;;3.33;2.30;;;18.20;99.90;;;;;;5041555;28;20634;-60
2023/09/22 07:23:24;;;;;;;3.00;2.47;;;18.30;99.90;;;;;;5036286;28;20209;-62
2023/09/22 07:26:09;;;;;;;2.67;2.17;;;18.20;99.90;;;;;;5035394;28;20257;-61
2023/09/22 07:28:36;;;;;;;2.33;2.13;;;18.20;99.90;;;;;;5037183;28;20276;-62
2023/09/22 07:31:13;;;;;;;3.03;1.80;;;18.20;99.90;;;;;;5037151;28;20550;-63
2023/09/22 07:33:39;;;;;;;3.33;2.00;;;18.10;99.90;;;;;;5037013;28;20238;-64
2023/09/22 07:36:05;;;;;;;3.77;2.03;;;18.20;99.90;;;;;;5037222;28;20263;-62
2023/09/22 07:38:33;;;;;;;2.67;2.10;;;18.10;99.90;;;;;;5036851;28;20606;-60
2023/09/22 07:40:59;;;;;;;1.53;1.43;;;18.00;99.90;;;;;;5040672;28;20625;-60
2023/09/22 07:43:29;;;;;;;4.27;1.63;;;18.10;99.90;;;;;;5015882;28;20964;-65
2023/09/22 07:45:55;;;;;;;3.47;2.20;;;18.10;99.90;;;;;;5039604;28;20208;-62
2023/09/22 07:48:21;;;;;;;1.80;1.70;;;18.20;99.90;;;;;;5037735;28;20255;-61
2023/09/22 07:50:46;;;;;;;2.23;1.53;;;18.20;99.90;;;;;;5037621;28;20253;-62
2023/09/22 07:53:12;;;;;;;4.57;2.37;;;18.30;99.90;;;;;;5040944;28;20214;-62
2023/09/22 07:55:40;;;;;;;4.73;1.80;;;18.30;99.90;;;;;;5014624;28;20210;-61
2023/09/22 07:58:06;;;;;;;1.67;1.53;;;18.20;99.90;;;;;;5017284;28;20209;-60
2023/09/22 08:00:33;;;;;;;2.43;1.50;;;18.30;99.90;;;;;;5016932;28;20202;-60
2023/09/22 08:02:59;;;;;;;1.43;1.33;;;18.40;99.90;;;;;;5020266;28;20217;-60
2023/09/22 08:05:25;;;;;;;1.63;1.40;;;18.40;99.90;;;;;;5017279;28;20197;-60
2023/09/22 08:07:51;;;;;;;2.20;1.50;;;18.40;99.90;;;;;;5016726;28;20528;-61
2023/09/22 08:10:18;;;;;;;3.27;2.03;;;18.40;99.90;;;;;;4998537;28;20242;-60
2023/09/22 08:12:44;;;;;;;3.43;2.20;;;18.50;99.90;;;;;;5012392;28;20186;-63
2023/09/22 08:15:11;;;;;;;2.50;2.30;;;18.50;99.90;;;;;;5011054;28;20208;-62
2023/09/22 08:17:36;;;;;;;2.37;2.10;;;18.50;99.90;;;;;;5014341;28;20217;-62
2023/09/22 08:20:07;;;;;;;2.37;2.17;;;18.50;99.90;;;;;;4998669;28;20212;-63
2023/09/22 08:22:32;;;;;;;2.17;1.97;;;18.50;99.90;;;;;;5015863;28;20259;-60
2023/09/22 08:24:58;;;;;;;3.87;2.20;;;18.50;99.90;;;;;;5018021;28;20560;-62
2023/09/22 08:27:24;;;;;;;2.23;2.03;;;18.50;99.90;;;;;;5016499;28;20213;-62
2023/09/22 08:29:50;;;;;;;2.50;2.30;;;18.50;99.90;;;;;;5020249;28;20208;-65
2023/09/22 08:32:16;;;;;;;2.93;2.10;;;18.60;99.90;;;;;;5016915;28;20194;-67
2023/09/22 08:34:41;;;;;;;2.30;2.20;;;18.60;99.90;;;;;;5016781;28;20295;-64
2023/09/22 08:37:07;;;;;;;2.30;2.13;;;18.70;99.90;;;;;;5019448;28;20360;-61
2023/09/22 08:39:33;;;;;;;3.17;2.57;;;18.80;99.90;;;;;;5000309;28;20206;-62
2023/09/22 08:41:59;;;;;;;3.63;2.37;;;18.80;99.90;;;;;;5019721;28;20202;-63
2023/09/22 08:44:25;;;;;;;4.37;2.57;;;18.80;99.90;;;;;;5013666;28;20220;-60
2023/09/22 08:46:52;;;;;;;3.53;2.67;;;18.80;99.90;;;;;;5008771;28;20201;-60
2023/09/22 08:49:21;;;;;;;3.93;2.40;;;18.70;99.90;;;;;;4995289;28;20234;-61
2023/09/22 08:51:47;;;;;;;3.23;2.53;;;18.60;99.90;;;;;;4995234;28;20756;-61
2023/09/22 08:54:13;;;;;;;3.97;2.37;;;18.70;99.90;;;;;;4996987;28;20632;-59
2023/09/22 08:56:39;;;;;;;2.87;2.10;;;18.70;99.90;;;;;;5018003;28;20226;-60
2023/09/22 08:59:04;;;;;;;2.83;2.40;;;18.70;99.90;;;;;;5019974;28;20202;-60
2023/09/22 09:01:30;;;;;;;2.03;1.87;;;18.60;99.90;;;;;;5015721;28;20761;-59
2023/09/22 09:03:57;;;;;;;2.10;1.87;;;18.60;99.90;;;;;;4996106;28;20196;-60
2023/09/22 09:06:23;;;;;;;1.67;1.57;;;18.60;99.90;;;;;;4995570;28;20217;-61
2023/09/22 09:09:09;;;;;;;5.33;1.97;;;18.60;99.90;;;;;;4999278;28;20204;-62
2023/09/22 09:11:35;;;;;;;3.20;1.97;;;18.50;99.90;;;;;;5011346;28;20202;-61
2023/09/22 09:14:20;;;;;;;1.53;1.43;;;18.50;99.90;;;;;;5016774;28;20198;-66
2023/09/22 09:16:46;;;;;;;2.60;1.90;;;18.60;99.90;;;;;;5017175;28;20220;-60
2023/09/22 09:19:14;;;;;;;2.90;1.43;;;18.60;99.90;;;;;;5015974;28;20433;-62
2023/09/22 09:22:00;;;;;;;2.10;1.90;;;18.60;99.90;;;;;;4999673;28;20203;-61
2023/09/22 09:24:25;;;;;;;3.50;1.90;;;18.60;99.90;;;;;;4990367;28;20584;-65
2023/09/22 09:26:51;;;;;;;2.37;2.17;;;18.50;99.90;;;;;;5014241;28;20209;-64
2023/09/22 09:29:29;;;;;;;1.50;1.40;;;18.40;99.90;;;;;;5012189;28;20953;-62
2023/09/22 09:32:00;;;;;;;2.67;2.03;;;18.40;99.90;;;;;;5015233;28;20202;-64
2023/09/22 09:34:39;;;;;;;1.80;1.70;;;18.40;99.90;;;;;;5015980;28;20189;-61
2023/09/22 09:37:13;;;;;;;3.67;1.63;;;18.40;99.90;;;;;;5016192;28;20624;-61
2023/09/22 09:39:51;;;;;;;1.40;1.27;;;18.50;99.90;;;;;;5018865;28;20188;-60
2023/09/22 09:42:18;;;;;;;2.47;1.70;;;18.40;99.90;;;;;;5016336;28;20199;-61
2023/09/22 09:44:51;;;;;;;2.87;1.90;;;18.40;99.90;;;;;;5018364;28;20533;-62
2023/09/22 09:47:32;;;;;;;2.33;1.47;;;18.40;99.90;;;;;;5015676;28;21004;-64
2023/09/22 09:49:58;;;;;;;1.77;1.60;;;18.40;99.90;;;;;;5019609;28;20205;-60
2023/09/22 09:52:37;;;;;;;5.10;1.90;;;18.30;99.90;;;;;;5015305;28;20213;-63
2023/09/22 09:55:14;;;;;;;2.63;1.60;;;18.30;99.90;;;;;;5001141;28;20802;-62
2023/09/22 09:57:43;;;;;;;3.80;1.40;;;18.40;99.90;;;;;;5018382;28;20265;-65
2023/09/22 10:00:14;;;;;;;2.90;1.80;;;18.40;99.90;;;;;;5012545;28;20237;-64
2023/09/22 10:02:43;;;;;;;2.37;1.50;;;18.20;99.90;;;;;;5018251;28;20199;-62
2023/09/22 10:05:15;;;;;;;1.53;1.20;;;18.30;99.90;;;;;;5021913;28;20211;-64
2023/09/22 10:07:48;;;;;;;2.30;1.40;;;18.30;99.90;;;;;;5013371;28;20808;-65
2023/09/22 10:10:17;;;;;;;1.60;1.50;;;18.30;99.90;;;;;;4993630;28;20225;-65
2023/09/22 10:12:44;;;;;;;2.70;1.13;;;18.30;99.90;;;;;;5017846;28;20270;-60
2023/09/22 10:15:11;;;;;;;6.17;1.77;;;18.20;99.90;;;;;;5018800;28;20196;-58
2023/09/22 10:17:37;;;;;;;2.23;1.20;;;18.20;99.90;;;;;;5011530;28;20694;-59
2023/09/22 10:20:10;;;;;;;8.70;1.43;;;18.20;99.90;;;;;;5015839;28;20209;-59
2023/09/22 10:22:37;;;;;;;2.00;1.40;;;18.20;99.90;;;;;;5014721;28;20211;-60
2023/09/22 10:25:14;;;;;;;2.97;1.50;;;18.20;99.90;;;;;;5022864;28;20256;-60
2023/09/22 10:27:57;;;;;;;1.07;1.03;;;18.20;99.90;;;;;;5016955;28;20618;-62
2023/09/22 10:30:30;;;;;;;2.43;1.63;;;18.20;99.90;;;;;;4998017;28;20690;-60
2023/09/22 10:33:16;;;;;;;2.80;1.70;;;18.30;99.90;;;;;;5011652;28;20216;-59
2023/09/22 10:35:46;;;;;;;2.47;1.47;;;18.30;99.90;;;;;;5015942;28;20365;-59
2023/09/22 10:38:12;;;;;;;6.70;1.40;;;18.30;99.90;;;;;;5013881;28;20612;-59
2023/09/22 10:40:40;;;;;;;3.00;1.47;;;18.40;99.90;;;;;;5017748;28;20204;-60
2023/09/22 10:43:06;;;;;;;2.43;1.67;;;18.40;99.90;;;;;;5000455;28;20202;-61
2023/09/22 10:45:32;;;;;;;1.40;1.30;;;18.40;99.90;;;;;;5012589;28;20517;-63
2023/09/22 10:47:58;;;;;;;2.03;1.47;;;18.40;99.90;;;;;;5001876;28;20300;-63
2023/09/22 10:50:30;;;;;;;2.13;1.53;;;18.30;99.90;;;;;;4998605;28;20202;-64
2023/09/22 10:53:00;;;;;;;1.43;1.07;;;18.40;99.90;;;;;;5000825;28;21195;-64
2023/09/22 10:55:41;;;;;;;1.83;1.60;;;18.40;99.90;;;;;;4996326;28;20727;-63
2023/09/22 10:58:09;;;;;;;3.20;1.33;;;18.40;99.90;;;;;;4994980;28;20247;-63
2023/09/22 11:00:37;;;;;;;1.93;1.43;;;18.30;99.90;;;;;;5001539;28;20200;-62
2023/09/22 11:03:22;;;;;;;1.93;1.80;;;18.40;99.90;;;;;;4998423;28;20246;-61
2023/09/22 11:06:00;;;;;;;1.50;1.37;;;18.40;99.90;;;;;;4995489;28;20200;-61
2023/09/22 11:08:26;;;;;;;1.20;1.03;;;18.40;99.90;;;;;;5002025;28;20722;-64
2023/09/22 11:10:54;;;;;;;2.67;1.20;;;18.40;99.90;;;;;;4996215;28;20271;-60
2023/09/22 11:13:23;;;;;;;2.90;1.60;;;18.50;99.90;;;;;;4993642;28;20201;-64
2023/09/22 11:16:03;;;;;;;3.93;1.57;;;18.50;99.90;;;;;;4995838;28;20200;-62
2023/09/22 11:18:33;;;;;;;4.43;1.20;;;18.50;99.90;;;;;;4998453;28;20195;-64
2023/09/22 11:21:02;;;;;;;1.63;1.40;;;18.60;99.90;;;;;;4997167;28;20295;-61
2023/09/22 11:23:28;;;;;;;3.07;1.40;;;18.60;99.90;;;;;;4993248;28;20306;-59
2023/09/22 11:26:09;;;;;;;5.23;1.70;;;18.50;99.90;;;;;;5001201;28;20210;-60
2023/09/22 11:28:45;;;;;;;2.00;1.90;;;18.60;99.90;;;;;;4977460;28;20661;-60
2023/09/22 11:31:16;;;;;;;1.50;1.30;;;18.60;99.90;;;;;;4987810;28;20199;-60
2023/09/22 11:33:43;;;;;;;2.10;1.57;;;18.60;99.90;;;;;;4988957;28;20307;-59
2023/09/22 11:36:09;;;;;;;1.77;1.63;;;18.60;99.90;;;;;;4993478;28;20210;-60
2023/09/22 11:38:39;;;;;;;4.63;1.90;;;18.80;99.90;;;;;;4993204;28;20367;-59
2023/09/22 11:41:10;;;;;;;3.07;1.60;;;18.80;99.90;;;;;;4996774;28;20209;-60
2023/09/22 11:43:41;;;;;;;3.17;1.90;;;18.80;99.90;;;;;;4997679;28;20647;-60
2023/09/22 11:46:17;;;;;;;2.67;1.50;;;18.90;99.90;;;;;;4998669;28;20210;-59
2023/09/22 11:49:02;;;;;;;5.30;1.77;;;18.90;99.90;;;;;;5010323;28;20219;-59
2023/09/22 11:51:40;;;;;;;2.17;1.30;;;18.90;99.90;;;;;;4996511;28;20209;-59
2023/09/22 11:54:07;;;;;;;5.23;1.83;;;18.90;99.90;;;;;;5016226;28;20202;-60
2023/09/22 11:56:33;;;;;;;2.23;1.70;;;18.90;99.90;;;;;;5015789;28;20214;-59
2023/09/22 11:59:05;;;;;;;2.70;1.53;;;18.90;99.90;;;;;;5015679;28;20210;-59
2023/09/22 12:01:31;;;;;;;3.13;1.80;;;18.90;99.90;;;;;;5016780;28;20668;-59
2023/09/22 12:03:57;;;;;;;1.93;1.20;;;18.90;99.90;;;;;;5012487;28;20206;-59
2023/09/22 12:06:23;;;;;;;5.90;1.97;;;18.80;99.90;;;;;;4997979;28;20191;-59
2023/09/22 12:08:48;;;;;;;2.27;1.93;;;18.90;99.90;;;;;;5013554;28;20202;-61
2023/09/22 12:11:14;;;;;;;2.10;1.80;;;19.00;99.90;;;;;;5017773;28;20255;-63
2023/09/22 12:13:40;;;;;;;1.60;1.50;;;19.10;99.90;;;;;;5015766;28;20284;-61
2023/09/22 12:16:09;;;;;;;1.53;1.43;;;19.10;99.90;;;;;;5016959;28;20548;-61
2023/09/22 12:18:35;;;;;;;1.57;1.47;;;19.20;99.90;;;;;;5014966;28;20679;-61
2023/09/22 12:21:00;;;;;;;2.37;2.17;;;19.20;99.90;;;;;;4997243;28;20190;-61
2023/09/22 12:23:26;;;;;;;2.40;2.17;;;19.10;99.90;;;;;;5001517;28;21012;-62
2023/09/22 12:25:52;;;;;;;2.70;1.40;;;19.00;99.90;;;;;;4996727;28;20189;-62
2023/09/22 12:28:18;;;;;;;6.30;1.50;;;18.90;99.90;;;;;;5003851;28;20777;-65
2023/09/22 12:30:44;;;;;;;1.77;1.53;;;19.00;99.90;;;;;;5015983;28;20207;-62
2023/09/22 12:33:10;;;;;;;1.03;1.00;;;19.10;99.90;;;;;;5011828;28;20211;-60
2023/09/22 12:35:38;;;;;;;2.37;1.43;;;19.00;99.90;;;;;;5013836;28;20197;-61
2023/09/22 12:38:04;;;;;;;3.90;1.47;;;19.00;99.90;;;;;;5019209;28;20909;-60
2023/09/22 12:40:30;;;;;;;1.77;1.60;;;18.90;99.90;;;;;;5000021;28;20189;-60
2023/09/22 12:42:55;;;;;;;3.33;1.30;;;19.00;99.90;;;;;;5012950;28;20920;-60
2023/09/22 12:45:22;;;;;;;4.70;1.67;;;18.90;99.90;;;;;;4994888;28;20198;-62
2023/09/22 12:47:47;;;;;;;5.67;1.50;;;18.90;99.90;;;;;;5014099;28;20252;-63